Карточка аэропорта USRR

Внимание!
Информация на этой странице в стадии наполнения.
Если вы не увидели какой-то информации, или заметили неточность - пожалуйста сообщите нам!
Спасибо!
Команда RU-STAFF
Название аэропортаСургут
Название аэропорта (англ.)Surgut
Превышение196 ft. (59.7 m.)
Координаты61°20.502', 73°24.168'
Высота перехода700m
Эшелон переходаFL040
Коды ответчика5570-5577
Зона ОрВДТюмень РПИ (USTV)
Данные METARUSRR 090800Z 20005MPS 9000 -SHSN SCT019CB BKN044 M12/M14 Q1002 R25/450537 TEMPO 2000 SHSN RMK OBST OBSC QFE746
Проноз погоды (TAF)USRR 090455Z 0906/1006 20006G14MPS 2100 -SHSN SCT007 BKN017CB TEMPO 0906/0915 0600 +SHSN VV003 BECMG 0910/0912 14003G08MPS BECMG 0915/0917 9999 NSW FEW003 TEMPO 0917/1006 5000 BR SCT002
NOTAMshow/hide NOTAM
AWOS   TABLE

Информация о ВПП

ВПП Длина ВПП (м.) Покрытие Курс ВПП Частота ILS
072780Асфальтобетон73110.5
252780Асфальтобетон253109.1

Диспетчерские позиции

Позывной Наименование органа УВД Частота
USRR_TWRСургут-Вышка120.800
USRR_APPСургут-Подход129.300



Спутниковое изображение